createdAt,value
2023-01-28T00:01:42.780Z,96.93
2023-01-28T00:04:11.234Z,97.10
2023-01-28T00:06:39.428Z,96.92
2023-01-28T00:09:07.965Z,96.59
2023-01-28T00:11:36.077Z,96.99
2023-01-28T00:14:05.003Z,97.09
2023-01-28T00:16:33.519Z,96.59
2023-01-28T00:19:03.403Z,96.41
2023-01-28T00:21:31.583Z,96.50
2023-01-28T00:23:59.999Z,96.28
2023-01-28T00:26:31.168Z,96.33
2023-01-28T00:28:59.683Z,96.28
2023-01-28T00:31:28.826Z,96.33
2023-01-28T00:33:57.898Z,96.51
2023-01-28T00:36:28.220Z,96.12
2023-01-28T00:38:58.961Z,95.89
2023-01-28T00:41:30.253Z,96.27
2023-01-28T00:43:58.736Z,96.10
2023-01-28T00:46:27.938Z,96.09
2023-01-28T00:48:56.574Z,96.75
2023-01-28T00:51:24.880Z,96.88
2023-01-28T00:53:55.235Z,96.54
2023-01-28T00:56:23.574Z,96.80
2023-01-28T00:58:52.371Z,96.66
2023-01-28T01:01:24.063Z,96.41
2023-01-28T01:03:57.790Z,96.08
2023-01-28T01:06:26.820Z,96.06
2023-01-28T01:08:56.659Z,96.36
2023-01-28T01:11:24.863Z,96.25
2023-01-28T01:13:55.531Z,96.37
2023-01-28T01:16:25.344Z,96.75
2023-01-28T01:18:54.953Z,96.80
2023-01-28T01:21:26.447Z,96.29
2023-01-28T01:23:56.658Z,96.19
2023-01-28T01:26:30.219Z,95.51
2023-01-28T01:28:58.820Z,95.36
2023-01-28T01:31:27.055Z,95.48
2023-01-28T01:33:55.613Z,95.72
2023-01-28T01:36:23.982Z,95.69
2023-01-28T01:38:56.831Z,95.84
2023-01-28T01:41:28.844Z,95.88
2023-01-28T01:43:59.813Z,96.07
2023-01-28T01:46:35.800Z,96.57
2023-01-28T01:49:22.282Z,96.38
2023-01-28T01:51:57.043Z,95.83
2023-01-28T01:54:30.274Z,95.67
2023-01-28T01:57:00.257Z,96.00
2023-01-28T01:59:33.539Z,95.94
2023-01-28T02:02:04.878Z,96.13
2023-01-28T02:04:36.969Z,96.80
2023-01-28T02:07:06.820Z,96.22
2023-01-28T02:09:38.611Z,95.84
2023-01-28T02:12:11.377Z,96.16
2023-01-28T02:14:45.791Z,96.11
2023-01-28T02:17:15.697Z,96.01
2023-01-28T02:19:49.595Z,95.73
2023-01-28T02:22:31.388Z,95.91
2023-01-28T02:25:31.449Z,96.00
2023-01-28T02:28:20.230Z,96.01
2023-01-28T02:30:55.219Z,96.06
2023-01-28T02:33:32.126Z,96.45
2023-01-28T02:36:10.801Z,95.72
2023-01-28T02:38:45.873Z,95.27
2023-01-28T02:41:20.236Z,95.22
2023-01-28T02:43:50.748Z,95.28
2023-01-28T02:46:41.545Z,95.43
2023-01-28T02:49:13.297Z,95.68
2023-01-28T02:51:54.507Z,96.00
2023-01-28T02:54:34.623Z,96.07
2023-01-28T02:57:13.987Z,96.42
2023-01-28T02:59:52.709Z,96.40
2023-01-28T03:02:27.022Z,96.67
2023-01-28T03:05:02.234Z,96.42
2023-01-28T03:07:34.256Z,96.42
2023-01-28T03:10:06.238Z,95.99
2023-01-28T03:12:56.098Z,96.51
2023-01-28T03:15:47.893Z,96.67
2023-01-28T03:18:37.184Z,96.80
2023-01-28T03:21:26.868Z,96.67
2023-01-28T03:24:17.839Z,96.90
2023-01-28T03:27:11.977Z,98.00
2023-01-28T03:30:00.385Z,98.54
2023-01-28T03:32:48.226Z,98.23
2023-01-28T03:35:36.513Z,98.73
2023-01-28T03:38:18.113Z,98.17
2023-01-28T03:40:54.360Z,97.75
2023-01-28T03:43:23.453Z,97.50
2023-01-28T03:45:52.576Z,98.53
2023-01-28T03:48:26.616Z,97.87
2023-01-28T03:50:56.868Z,98.08
2023-01-28T03:53:25.067Z,98.02
2023-01-28T03:55:56.802Z,98.28
2023-01-28T03:58:27.194Z,98.84
2023-01-28T04:00:55.798Z,98.31
2023-01-28T04:03:25.339Z,98.49
2023-01-28T04:06:00.531Z,98.22
2023-01-28T04:08:28.731Z,98.35
2023-01-28T04:11:15.492Z,98.50
2023-01-28T04:13:43.830Z,99.12
2023-01-28T04:16:12.633Z,98.88
2023-01-28T04:18:42.535Z,99.28
2023-01-28T04:21:11.392Z,98.96
2023-01-28T04:23:40.094Z,98.80
2023-01-28T04:26:08.642Z,99.01
2023-01-28T04:28:37.076Z,98.78
2023-01-28T04:31:05.664Z,99.10
2023-01-28T04:33:33.995Z,99.65
2023-01-28T04:36:04.373Z,99.88
2023-01-28T04:38:32.551Z,100.00
2023-01-28T04:41:01.160Z,99.52
2023-01-28T04:43:29.399Z,99.84
2023-01-28T04:45:57.783Z,99.95
2023-01-28T04:48:30.596Z,100.00
2023-01-28T04:50:59.392Z,100.00
2023-01-28T04:53:28.939Z,100.00
2023-01-28T04:56:00.358Z,100.00
2023-01-28T04:58:28.727Z,100.00
2023-01-28T05:00:58.362Z,100.00
2023-01-28T05:03:26.496Z,100.00
2023-01-28T05:05:54.969Z,99.98
2023-01-28T05:08:23.313Z,100.00
2023-01-28T05:10:53.579Z,100.00
2023-01-28T05:13:21.665Z,100.00
2023-01-28T05:15:53.599Z,100.00
2023-01-28T05:18:22.194Z,100.00
2023-01-28T05:20:50.660Z,100.00
2023-01-28T05:23:18.806Z,100.00
2023-01-28T05:25:47.350Z,100.00
2023-01-28T05:28:16.983Z,100.00
2023-01-28T05:30:45.982Z,100.00
2023-01-28T05:33:14.391Z,100.00
2023-01-28T05:35:43.648Z,100.00
2023-01-28T05:38:14.245Z,100.00
2023-01-28T05:40:43.530Z,100.00
2023-01-28T05:43:11.982Z,100.00
2023-01-28T05:45:44.701Z,100.00
2023-01-28T05:48:13.246Z,100.00
2023-01-28T05:50:42.029Z,100.00
2023-01-28T05:53:10.723Z,100.00
2023-01-28T05:55:39.258Z,100.00
2023-01-28T05:58:07.703Z,100.00
2023-01-28T06:00:36.228Z,100.00
2023-01-28T06:03:05.847Z,100.00
2023-01-28T06:05:34.408Z,100.00
2023-01-28T06:08:02.940Z,100.00
2023-01-28T06:10:31.989Z,100.00
2023-01-28T06:13:02.442Z,100.00
2023-01-28T06:15:31.054Z,100.00
2023-01-28T06:17:59.173Z,100.00
2023-01-28T06:20:29.333Z,100.00
2023-01-28T06:22:57.460Z,100.00
2023-01-28T06:25:26.068Z,100.00
2023-01-28T06:27:54.208Z,100.00
2023-01-28T06:30:25.757Z,100.00
2023-01-28T06:32:57.574Z,100.00
2023-01-28T06:35:26.269Z,100.00
2023-01-28T06:37:55.891Z,100.00
2023-01-28T06:40:25.090Z,100.00
2023-01-28T06:42:53.203Z,100.00
2023-01-28T06:45:21.906Z,100.00
2023-01-28T06:47:50.067Z,100.00
2023-01-28T06:50:20.731Z,100.00
2023-01-28T06:52:48.978Z,100.00
2023-01-28T06:55:20.301Z,100.00
2023-01-28T06:57:48.724Z,100.00
2023-01-28T07:00:18.502Z,100.00
2023-01-28T07:02:46.785Z,100.00
2023-01-28T07:05:15.376Z,100.00
2023-01-28T07:07:43.628Z,100.00
2023-01-28T07:10:12.959Z,100.00
2023-01-28T07:12:45.945Z,100.00
2023-01-28T07:15:15.504Z,100.00
2023-01-28T07:17:44.146Z,100.00
2023-01-28T07:20:16.437Z,100.00
2023-01-28T07:22:46.061Z,100.00
2023-01-28T07:25:16.499Z,100.00
2023-01-28T07:27:50.418Z,100.00
2023-01-28T07:30:20.981Z,100.00
2023-01-28T07:32:57.558Z,100.00
2023-01-28T07:35:27.064Z,100.00
2023-01-28T07:37:56.264Z,100.00
2023-01-28T07:40:25.802Z,100.00
2023-01-28T07:42:56.825Z,100.00
2023-01-28T07:45:26.834Z,100.00
2023-01-28T07:47:57.028Z,100.00
2023-01-28T07:50:25.687Z,100.00
2023-01-28T07:52:53.963Z,100.00
2023-01-28T07:55:22.711Z,100.00
2023-01-28T07:57:53.197Z,99.95
2023-01-28T08:00:24.699Z,100.00
2023-01-28T08:02:57.570Z,100.00
2023-01-28T08:05:28.280Z,99.10
2023-01-28T08:07:56.602Z,98.88
2023-01-28T08:10:25.367Z,99.40
2023-01-28T08:12:54.718Z,98.95
2023-01-28T08:15:24.503Z,99.49
2023-01-28T08:17:52.446Z,99.09
2023-01-28T08:20:20.828Z,99.30
2023-01-28T08:22:49.083Z,99.37
2023-01-28T08:25:17.819Z,98.67
2023-01-28T08:27:45.989Z,98.09
2023-01-28T08:30:15.160Z,97.87
2023-01-28T08:32:45.231Z,96.35
2023-01-28T08:35:13.989Z,96.09
2023-01-28T08:37:42.185Z,96.00
2023-01-28T08:40:12.194Z,96.62
2023-01-28T08:42:40.314Z,96.51
2023-01-28T08:45:10.108Z,96.91
2023-01-28T08:47:38.003Z,96.96
2023-01-28T08:50:09.202Z,96.77
2023-01-28T08:52:37.299Z,96.85
2023-01-28T08:55:08.829Z,96.44
2023-01-28T08:57:37.267Z,96.58
2023-01-28T09:00:07.717Z,96.71
2023-01-28T09:02:36.016Z,96.16
2023-01-28T09:05:05.423Z,95.60
2023-01-28T09:07:36.310Z,95.86
2023-01-28T09:10:09.534Z,95.68
2023-01-28T09:12:38.227Z,95.00
2023-01-28T09:15:08.353Z,94.22
2023-01-28T09:17:36.547Z,94.27
2023-01-28T09:20:05.942Z,94.40
2023-01-28T09:22:36.892Z,93.53
2023-01-28T09:25:05.764Z,93.34
2023-01-28T09:27:33.868Z,93.11
2023-01-28T09:30:02.282Z,93.02
2023-01-28T09:32:31.302Z,92.96
2023-01-28T09:35:02.598Z,92.97
2023-01-28T09:37:31.120Z,92.29
2023-01-28T09:40:01.110Z,92.52
2023-01-28T09:42:46.516Z,92.29
2023-01-28T09:45:20.015Z,92.51
2023-01-28T09:47:52.003Z,91.91
2023-01-28T09:50:26.683Z,91.79
2023-01-28T09:52:57.260Z,91.63
2023-01-28T09:55:34.880Z,90.96
2023-01-28T09:58:03.269Z,90.46
2023-01-28T10:00:39.841Z,91.29
2023-01-28T10:03:57.627Z,89.74
2023-01-28T10:06:34.154Z,89.10
2023-01-28T10:09:24.027Z,87.61
2023-01-28T10:12:06.099Z,87.28
2023-01-28T10:14:46.657Z,89.10
2023-01-28T10:17:23.972Z,89.56
2023-01-28T10:19:58.578Z,88.39
2023-01-28T10:22:30.228Z,87.40
2023-01-28T10:25:07.394Z,85.35
2023-01-28T10:27:38.393Z,83.70
2023-01-28T10:30:20.230Z,84.07
2023-01-28T10:32:54.249Z,85.60
2023-01-28T10:35:24.164Z,86.02
2023-01-28T10:37:57.416Z,85.58
2023-01-28T10:40:25.832Z,84.00
2023-01-28T10:42:55.612Z,84.62
2023-01-28T10:45:28.064Z,84.34
2023-01-28T10:48:03.663Z,84.66
2023-01-28T10:50:32.850Z,82.09
2023-01-28T10:53:01.504Z,81.75
2023-01-28T10:55:33.590Z,82.88
2023-01-28T10:58:05.245Z,82.82
2023-01-28T11:00:38.274Z,81.95
2023-01-28T11:03:06.994Z,81.53
2023-01-28T11:05:35.245Z,81.53
2023-01-28T11:08:14.592Z,81.33
2023-01-28T11:10:43.394Z,81.06
2023-01-28T11:13:19.580Z,81.64
2023-01-28T11:15:49.591Z,82.13
2023-01-28T11:18:22.972Z,82.00
2023-01-28T11:20:53.570Z,81.17
2023-01-28T11:23:25.985Z,82.11
2023-01-28T11:26:08.506Z,82.16
2023-01-28T11:28:42.353Z,82.39
2023-01-28T11:31:13.928Z,80.81
2023-01-28T11:33:46.824Z,81.07
2023-01-28T11:36:17.773Z,80.89
2023-01-28T11:38:53.974Z,81.32
2023-01-28T11:41:31.711Z,81.86
2023-01-28T11:44:07.068Z,81.78
2023-01-28T11:46:51.418Z,81.40
2023-01-28T11:49:28.257Z,81.58
2023-01-28T11:52:05.036Z,80.96
2023-01-28T11:54:48.760Z,81.08
2023-01-28T11:57:24.737Z,81.93
2023-01-28T12:00:08.796Z,81.74
2023-01-28T12:02:52.757Z,82.04
2023-01-28T12:05:42.108Z,81.39
2023-01-28T12:08:19.631Z,81.32
2023-01-28T12:11:01.411Z,82.27
2023-01-28T12:13:44.468Z,81.30
2023-01-28T12:16:46.257Z,82.39
2023-01-28T12:19:35.021Z,81.91
2023-01-28T12:22:18.855Z,82.73
2023-01-28T12:24:59.856Z,82.60
2023-01-28T12:27:43.251Z,82.78
2023-01-28T12:30:25.379Z,83.10
2023-01-28T12:33:12.340Z,83.39
2023-01-28T12:36:02.676Z,83.73
2023-01-28T12:38:45.948Z,83.23
2023-01-28T12:41:17.870Z,84.03
2023-01-28T12:43:58.735Z,83.48
2023-01-28T12:46:36.639Z,83.73
2023-01-28T12:49:09.847Z,83.79
2023-01-28T12:51:48.366Z,84.47
2023-01-28T12:54:22.787Z,83.44
2023-01-28T12:56:56.066Z,84.17
2023-01-28T12:59:31.062Z,84.29
2023-01-28T13:02:07.372Z,83.85
2023-01-28T13:04:43.997Z,84.14
2023-01-28T13:07:16.744Z,83.87
2023-01-28T13:09:53.191Z,83.99
2023-01-28T13:12:24.026Z,84.55
2023-01-28T13:14:54.429Z,85.07
2023-01-28T13:17:30.594Z,83.80
2023-01-28T13:20:01.144Z,83.27
2023-01-28T13:22:32.806Z,83.88
2023-01-28T13:25:20.862Z,83.46
2023-01-28T13:28:01.311Z,83.66
2023-01-28T13:30:31.531Z,83.63
2023-01-28T13:33:02.258Z,83.75
2023-01-28T13:35:35.640Z,83.96
2023-01-28T13:38:16.151Z,84.62
2023-01-28T13:40:45.799Z,84.61
2023-01-28T13:43:38.621Z,84.98
2023-01-28T13:46:09.176Z,84.90
2023-01-28T13:48:44.127Z,84.65
2023-01-28T13:51:21.245Z,84.97
2023-01-28T13:53:57.509Z,85.06
2023-01-28T13:56:29.587Z,85.39
2023-01-28T13:59:45.985Z,85.38
2023-01-28T14:02:54.289Z,86.56
2023-01-28T14:05:56.323Z,86.00
2023-01-28T14:09:08.772Z,85.67
2023-01-28T14:12:08.128Z,86.27
2023-01-28T14:15:06.413Z,86.62
2023-01-28T14:17:43.377Z,87.36
2023-01-28T14:20:19.154Z,87.95
2023-01-28T14:22:48.505Z,87.92
2023-01-28T14:25:28.936Z,88.32
2023-01-28T14:27:57.919Z,88.33
2023-01-28T14:30:36.822Z,88.65
2023-01-28T14:33:05.113Z,89.00
2023-01-28T14:35:36.338Z,89.05
2023-01-28T14:38:10.777Z,89.31
2023-01-28T14:40:41.420Z,89.93
2023-01-28T14:43:17.652Z,89.75
2023-01-28T14:46:15.006Z,89.56
2023-01-28T14:48:53.127Z,89.33
2023-01-28T14:51:45.290Z,88.99
2023-01-28T14:54:29.760Z,89.20
2023-01-28T14:57:22.660Z,89.76
2023-01-28T14:59:55.250Z,89.33
2023-01-28T15:02:26.023Z,88.79
2023-01-28T15:04:54.817Z,88.53
2023-01-28T15:07:24.511Z,88.65
2023-01-28T15:10:02.502Z,88.83
2023-01-28T15:12:36.593Z,89.34
2023-01-28T15:15:13.484Z,89.37
2023-01-28T15:17:42.213Z,89.42
2023-01-28T15:20:17.889Z,89.58
2023-01-28T15:22:46.970Z,89.78
2023-01-28T15:25:19.198Z,90.03
2023-01-28T15:27:50.624Z,90.41
2023-01-28T15:30:24.690Z,90.54
2023-01-28T15:33:00.951Z,91.18
2023-01-28T15:35:29.377Z,91.30
2023-01-28T15:37:58.784Z,91.12
2023-01-28T15:40:31.537Z,90.99
2023-01-28T15:43:01.366Z,91.08
2023-01-28T15:45:30.615Z,91.36
2023-01-28T15:48:05.112Z,91.93
2023-01-28T15:50:33.596Z,91.96
2023-01-28T15:53:02.061Z,91.75
2023-01-28T15:55:41.362Z,91.97
2023-01-28T15:58:28.123Z,92.06
2023-01-28T16:01:15.278Z,92.21
2023-01-28T16:03:46.075Z,92.64
2023-01-28T16:06:18.569Z,92.76
2023-01-28T16:08:53.105Z,92.96
2023-01-28T16:11:28.823Z,93.54
2023-01-28T16:13:59.605Z,94.02
2023-01-28T16:16:34.463Z,93.91
2023-01-28T16:19:06.535Z,93.93
2023-01-28T16:21:37.971Z,94.27
2023-01-28T16:24:08.584Z,94.03
2023-01-28T16:26:37.490Z,94.00
2023-01-28T16:29:17.335Z,93.94
2023-01-28T16:31:46.052Z,94.02
2023-01-28T16:34:15.020Z,94.06
2023-01-28T16:36:43.102Z,94.17
2023-01-28T16:39:13.103Z,94.03
2023-01-28T16:41:44.791Z,94.21
2023-01-28T16:44:15.964Z,94.55
2023-01-28T16:46:44.799Z,95.07
2023-01-28T16:49:13.220Z,95.13
2023-01-28T16:51:44.460Z,95.91
2023-01-28T16:54:16.405Z,96.12
2023-01-28T16:56:46.831Z,96.16
2023-01-28T16:59:19.208Z,96.98
2023-01-28T17:01:48.769Z,97.48
2023-01-28T17:04:17.266Z,98.28
2023-01-28T17:06:46.027Z,98.47
2023-01-28T17:09:15.909Z,99.64
2023-01-28T17:11:44.340Z,99.54
2023-01-28T17:14:12.890Z,99.69
2023-01-28T17:16:43.117Z,100.00
2023-01-28T17:19:11.888Z,100.00
2023-01-28T17:21:40.058Z,100.00
2023-01-28T17:24:09.211Z,100.00
2023-01-28T17:26:38.286Z,100.00
2023-01-28T17:29:08.485Z,100.00
2023-01-28T17:31:37.445Z,100.00
2023-01-28T17:34:08.213Z,100.00
2023-01-28T17:36:37.494Z,100.00
2023-01-28T17:39:07.523Z,100.00
2023-01-28T17:41:35.906Z,100.00
2023-01-28T17:44:05.225Z,100.00
2023-01-28T17:46:34.295Z,100.00
2023-01-28T17:49:02.888Z,100.00
2023-01-28T17:51:32.854Z,100.00
2023-01-28T17:54:01.374Z,100.00
2023-01-28T17:56:31.312Z,100.00
2023-01-28T17:59:03.740Z,100.00
2023-01-28T18:01:32.360Z,100.00
2023-01-28T18:04:01.525Z,100.00
2023-01-28T18:06:34.109Z,100.00
2023-01-28T18:09:02.960Z,100.00
2023-01-28T18:11:33.035Z,100.00
2023-01-28T18:14:02.183Z,100.00
2023-01-28T18:16:30.744Z,100.00
2023-01-28T18:18:59.297Z,100.00
2023-01-28T18:21:51.251Z,100.00
2023-01-28T18:24:21.073Z,100.00
2023-01-28T18:26:49.287Z,100.00
2023-01-28T18:29:20.812Z,100.00
2023-01-28T18:31:49.574Z,100.00
2023-01-28T18:34:19.025Z,100.00
2023-01-28T18:36:49.750Z,100.00
2023-01-28T18:39:19.398Z,100.00
2023-01-28T18:41:47.773Z,100.00
2023-01-28T18:44:17.231Z,100.00
2023-01-28T18:46:47.422Z,100.00
2023-01-28T18:49:15.956Z,100.00
2023-01-28T18:51:44.787Z,100.00
2023-01-28T18:54:16.172Z,100.00
2023-01-28T18:56:45.098Z,100.00
2023-01-28T18:59:16.323Z,100.00
2023-01-28T19:01:47.778Z,100.00
2023-01-28T19:04:17.099Z,100.00
2023-01-28T19:06:45.424Z,100.00
2023-01-28T19:09:16.992Z,100.00
2023-01-28T19:11:46.310Z,100.00
2023-01-28T19:14:16.183Z,100.00
2023-01-28T19:16:44.942Z,100.00
2023-01-28T19:19:13.775Z,100.00
2023-01-28T19:21:42.474Z,100.00
2023-01-28T19:24:14.224Z,100.00
2023-01-28T19:26:45.359Z,100.00
2023-01-28T19:29:16.049Z,100.00
2023-01-28T19:31:48.840Z,100.00
2023-01-28T19:34:18.433Z,100.00
2023-01-28T19:36:47.018Z,100.00
2023-01-28T19:39:16.625Z,100.00
2023-01-28T19:41:46.601Z,100.00
2023-01-28T19:44:15.101Z,100.00
2023-01-28T19:46:43.694Z,100.00
2023-01-28T19:49:13.219Z,100.00
2023-01-28T19:51:41.921Z,100.00
2023-01-28T19:54:10.996Z,100.00
2023-01-28T19:56:40.261Z,100.00
2023-01-28T19:59:11.566Z,100.00
2023-01-28T20:01:39.866Z,100.00
2023-01-28T20:04:08.631Z,100.00
2023-01-28T20:06:37.551Z,100.00
2023-01-28T20:09:10.439Z,100.00
2023-01-28T20:11:38.685Z,100.00
2023-01-28T20:14:07.427Z,100.00
2023-01-28T20:16:37.647Z,100.00
2023-01-28T20:19:08.024Z,100.00
2023-01-28T20:21:37.330Z,100.00
2023-01-28T20:24:06.870Z,100.00
2023-01-28T20:26:37.831Z,100.00
2023-01-28T20:29:08.325Z,100.00
2023-01-28T20:31:39.093Z,100.00
2023-01-28T20:34:08.381Z,100.00
2023-01-28T20:36:36.565Z,100.00
2023-01-28T20:39:05.234Z,100.00
2023-01-28T20:41:34.359Z,100.00
2023-01-28T20:44:03.066Z,100.00
2023-01-28T20:46:33.172Z,100.00
2023-01-28T20:49:06.755Z,100.00
2023-01-28T20:51:36.795Z,100.00
2023-01-28T20:54:05.524Z,100.00
2023-01-28T20:56:34.151Z,100.00
2023-01-28T20:59:04.745Z,100.00
2023-01-28T21:01:35.676Z,100.00
2023-01-28T21:04:07.922Z,100.00
2023-01-28T21:06:38.220Z,100.00
2023-01-28T21:09:08.901Z,100.00
2023-01-28T21:11:37.420Z,100.00
2023-01-28T21:14:05.918Z,100.00
2023-01-28T21:16:34.275Z,100.00
2023-01-28T21:19:02.872Z,100.00
2023-01-28T21:21:33.311Z,100.00
2023-01-28T21:24:02.693Z,100.00
2023-01-28T21:26:33.919Z,100.00
2023-01-28T21:29:02.814Z,100.00
2023-01-28T21:31:31.611Z,100.00
2023-01-28T21:34:02.359Z,100.00
2023-01-28T21:36:34.556Z,100.00
2023-01-28T21:39:03.740Z,100.00
2023-01-28T21:41:32.800Z,100.00
2023-01-28T21:44:01.316Z,100.00
2023-01-28T21:46:31.102Z,100.00
2023-01-28T21:49:01.945Z,100.00
2023-01-28T21:51:38.018Z,100.00
2023-01-28T21:54:11.136Z,100.00
2023-01-28T21:56:40.285Z,100.00
2023-01-28T21:59:28.628Z,100.00
2023-01-28T22:01:59.065Z,100.00
2023-01-28T22:04:30.220Z,100.00
2023-01-28T22:06:58.962Z,99.89
2023-01-28T22:09:29.291Z,99.22
2023-01-28T22:11:57.405Z,99.16
2023-01-28T22:14:26.027Z,98.72
2023-01-28T22:16:54.183Z,98.35
2023-01-28T22:19:22.924Z,98.31
2023-01-28T22:21:51.474Z,98.07
2023-01-28T22:24:22.577Z,97.71
2023-01-28T22:26:53.977Z,97.54
2023-01-28T22:29:23.740Z,97.41
2023-01-28T22:31:52.559Z,97.38
2023-01-28T22:34:22.563Z,97.11
2023-01-28T22:36:51.490Z,96.69
2023-01-28T22:39:20.437Z,96.55
2023-01-28T22:41:49.349Z,96.60
2023-01-28T22:44:20.184Z,96.60
2023-01-28T22:46:48.824Z,96.64
2023-01-28T22:49:17.279Z,96.64
2023-01-28T22:51:45.432Z,96.24
2023-01-28T22:54:15.066Z,96.33
2023-01-28T22:56:43.386Z,96.67
2023-01-28T22:59:14.138Z,96.35
2023-01-28T23:01:43.963Z,96.24
2023-01-28T23:04:12.414Z,95.92
2023-01-28T23:06:40.590Z,95.95
2023-01-28T23:09:09.106Z,95.70
2023-01-28T23:11:37.253Z,95.79
2023-01-28T23:14:23.477Z,95.84
2023-01-28T23:17:10.177Z,95.77
2023-01-28T23:19:56.317Z,95.92
2023-01-28T23:22:45.049Z,96.15
2023-01-28T23:25:13.676Z,96.49
2023-01-28T23:27:42.055Z,96.61
2023-01-28T23:30:12.125Z,97.26
2023-01-28T23:32:44.931Z,97.59
2023-01-28T23:35:13.609Z,97.59
2023-01-28T23:37:41.747Z,97.59
2023-01-28T23:40:11.283Z,98.13
2023-01-28T23:42:39.655Z,98.21
2023-01-28T23:45:08.904Z,98.06
2023-01-28T23:47:37.634Z,98.30
2023-01-28T23:50:08.775Z,97.74
2023-01-28T23:52:37.070Z,97.84
2023-01-28T23:55:07.889Z,97.80
2023-01-28T23:57:37.497Z,97.92
